Time;durP1;ratioP1;P1;durP2;ratioP2;P2;SDS_P1;SDS_P2;PMS_P1;PMS_P2;Temp;Humidity;BMP_temperature;BMP_pressure;BME280_temperature;BME280_humidity;BME280_pressure;Samples;Min_cycle;Max_cycle;Signal;HPM_P1;HPM_P2
2022/10/01 00:00:14;;;;;;;6.23;4.53;;;10.70;99.90;;;;;;5054035;28;20551;-70
2022/10/01 00:02:40;;;;;;;6.37;4.20;;;10.80;99.90;;;;;;5053319;28;20029;-69
2022/10/01 00:05:06;;;;;;;7.05;4.38;;;10.90;99.90;;;;;;5054384;28;20025;-69
2022/10/01 00:07:39;;;;;;;7.35;4.55;;;10.80;99.90;;;;;;5035905;28;20390;-70
2022/10/01 00:10:05;;;;;;;7.50;4.57;;;10.80;99.90;;;;;;5046513;28;20028;-70
2022/10/01 00:12:31;;;;;;;5.68;3.70;;;10.70;99.90;;;;;;5053020;28;20051;-69
2022/10/01 00:14:56;;;;;;;7.97;4.20;;;10.70;99.90;;;;;;5054155;28;20545;-69
2022/10/01 00:17:23;;;;;;;10.10;4.17;;;10.70;99.90;;;;;;5052898;28;20025;-69
2022/10/01 00:19:48;;;;;;;7.50;4.82;;;10.60;99.90;;;;;;5052441;28;20025;-70
2022/10/01 00:22:14;;;;;;;5.60;3.95;;;10.70;99.90;;;;;;5053982;28;20404;-70
2022/10/01 00:24:40;;;;;;;6.17;3.90;;;10.70;99.90;;;;;;5054465;28;20017;-70
2022/10/01 00:27:05;;;;;;;7.83;4.13;;;10.70;99.90;;;;;;5054271;28;20386;-70
2022/10/01 00:29:31;;;;;;;6.97;4.00;;;10.80;99.90;;;;;;5051470;28;20017;-70
2022/10/01 00:31:57;;;;;;;6.60;4.20;;;10.80;99.90;;;;;;5053659;28;20021;-70
2022/10/01 00:34:22;;;;;;;4.93;3.85;;;10.70;99.90;;;;;;5048888;28;20025;-70
2022/10/01 00:36:48;;;;;;;4.75;3.50;;;10.60;99.90;;;;;;5033045;28;20026;-70
2022/10/01 00:39:14;;;;;;;4.50;3.93;;;10.70;99.90;;;;;;5048709;28;20032;-70
2022/10/01 00:41:40;;;;;;;7.43;3.92;;;10.70;99.90;;;;;;5053166;28;20028;-69
2022/10/01 00:44:25;;;;;;;6.95;4.18;;;10.60;99.90;;;;;;5054416;28;20040;-69
2022/10/01 00:46:52;;;;;;;5.90;3.80;;;10.80;99.90;;;;;;5053445;28;20393;-69
2022/10/01 00:49:25;;;;;;;6.00;3.75;;;10.80;99.90;;;;;;5054321;28;20025;-70
2022/10/01 00:51:58;;;;;;;5.38;3.75;;;10.70;99.90;;;;;;5052582;28;20021;-69
2022/10/01 00:54:33;;;;;;;8.15;4.05;;;10.80;99.90;;;;;;5052785;28;20092;-69
2022/10/01 00:57:01;;;;;;;5.85;3.65;;;10.70;99.90;;;;;;5053748;28;20504;-70
2022/10/01 00:59:28;;;;;;;9.02;3.80;;;10.70;99.90;;;;;;5052035;28;20033;-71
2022/10/01 01:01:53;;;;;;;7.10;3.35;;;10.80;99.90;;;;;;5047009;28;20026;-70
2022/10/01 01:04:19;;;;;;;6.03;3.80;;;10.80;99.90;;;;;;5033687;28;20401;-69
2022/10/01 01:06:56;;;;;;;4.60;3.43;;;10.70;99.90;;;;;;5033743;28;20076;-69
2022/10/01 01:09:25;;;;;;;6.45;3.65;;;10.60;99.90;;;;;;5033848;28;20554;-70
2022/10/01 01:12:03;;;;;;;5.57;3.60;;;10.70;99.90;;;;;;5053408;28;20029;-69
2022/10/01 01:14:40;;;;;;;5.40;3.45;;;10.60;99.90;;;;;;5051945;28;20057;-70
2022/10/01 01:17:13;;;;;;;5.82;3.35;;;10.50;99.90;;;;;;5052203;28;20079;-70
2022/10/01 01:20:17;;;;;;;5.75;3.45;;;10.50;99.90;;;;;;5053488;28;20027;-70
2022/10/01 01:22:54;;;;;;;4.72;3.17;;;10.60;99.90;;;;;;5037357;28;20057;-69
2022/10/01 01:25:23;;;;;;;;;;;10.60;99.90;;;;;;5033758;28;20017;-69
2022/10/01 01:28:23;;;;;;;4.60;3.20;;;10.60;99.90;;;;;;5031743;28;19913;-70
2022/10/01 01:30:54;;;;;;;7.35;3.15;;;10.70;99.90;;;;;;5035688;28;20025;-69
2022/10/01 01:33:22;;;;;;;5.90;3.40;;;10.60;99.90;;;;;;5053550;28;20026;-69
2022/10/01 01:35:56;;;;;;;4.75;3.05;;;10.60;99.90;;;;;;5033306;28;20124;-70
2022/10/01 01:38:29;;;;;;;6.35;3.50;;;10.60;99.90;;;;;;5042416;28;20054;-70
2022/10/01 01:40:59;;;;;;;6.93;3.17;;;10.60;99.90;;;;;;5056820;28;20025;-71
2022/10/01 01:43:36;;;;;;;4.63;3.25;;;10.70;99.90;;;;;;5056182;28;20032;-70
2022/10/01 01:46:04;;;;;;;4.80;3.20;;;10.60;99.90;;;;;;5057043;28;20417;-69
2022/10/01 01:48:35;;;;;;;7.03;3.17;;;10.70;99.90;;;;;;5055679;28;20029;-69
2022/10/01 01:51:13;;;;;;;10.35;3.35;;;10.70;99.90;;;;;;5056989;28;20045;-69
2022/10/01 01:53:39;;;;;;;8.52;3.25;;;10.70;99.90;;;;;;5056597;28;20025;-69
2022/10/01 01:56:05;;;;;;;4.20;3.17;;;10.60;99.90;;;;;;5057062;28;20025;-70
2022/10/01 01:58:32;;;;;;;;;;;10.60;99.90;;;;;;5057222;28;20087;-69
2022/10/01 02:00:57;;;;;;;6.20;3.38;;;10.60;99.90;;;;;;5056822;28;19908;-70
2022/10/01 02:03:28;;;;;;;5.93;3.30;;;10.70;99.90;;;;;;5056081;28;20028;-70
2022/10/01 02:06:03;;;;;;;6.05;3.15;;;10.80;99.90;;;;;;5056798;28;20493;-69
2022/10/01 02:08:48;;;;;;;3.85;2.80;;;10.70;99.90;;;;;;5047295;28;20032;-70
2022/10/01 02:11:38;;;;;;;4.20;2.83;;;10.70;99.90;;;;;;5056571;28;20040;-70
2022/10/01 02:14:41;;;;;;;4.30;2.92;;;10.80;99.90;;;;;;5055411;28;20060;-70
2022/10/01 02:17:22;;;;;;;4.45;2.72;;;10.80;99.90;;;;;;5056563;28;20025;-70
2022/10/01 02:20:17;;;;;;;4.03;2.22;;;10.90;99.90;;;;;;5054255;28;20029;-70
2022/10/01 02:22:51;;;;;;;6.05;2.83;;;10.90;99.90;;;;;;5031039;28;20044;-70
2022/10/01 02:25:21;;;;;;;4.07;2.78;;;10.90;99.90;;;;;;5027439;28;20026;-70
2022/10/01 02:27:54;;;;;;;5.88;2.55;;;11.00;99.90;;;;;;5033721;28;20080;-70
2022/10/01 02:30:20;;;;;;;3.60;2.25;;;11.10;99.90;;;;;;5016733;28;20034;-70
2022/10/01 02:32:48;;;;;;;3.15;2.30;;;11.10;99.90;;;;;;5033832;28;20465;-70
2022/10/01 02:35:16;;;;;;;6.78;2.95;;;11.00;99.90;;;;;;5008795;28;20049;-70
2022/10/01 02:37:45;;;;;;;3.33;2.22;;;11.10;99.90;;;;;;5017115;28;20056;-70
2022/10/01 02:40:16;;;;;;;3.35;2.33;;;11.20;99.90;;;;;;5017371;28;20037;-70
2022/10/01 02:42:48;;;;;;;5.60;2.33;;;11.30;99.90;;;;;;5017049;28;20128;-70
2022/10/01 02:45:18;;;;;;;5.03;2.42;;;11.20;99.90;;;;;;5016646;28;20029;-70
2022/10/01 02:47:47;;;;;;;2.35;1.90;;;11.30;99.90;;;;;;5016961;28;20074;-69
2022/10/01 02:50:14;;;;;;;3.55;1.80;;;11.30;99.90;;;;;;5033502;28;20026;-69
2022/10/01 02:53:09;;;;;;;3.38;1.80;;;11.30;99.90;;;;;;5013549;28;20040;-70
2022/10/01 02:55:38;;;;;;;4.38;2.05;;;11.40;99.90;;;;;;4996268;28;20030;-70
2022/10/01 02:58:04;;;;;;;5.72;1.90;;;11.40;99.90;;;;;;5016663;28;20029;-70
2022/10/01 03:00:30;;;;;;;3.05;1.70;;;11.50;99.90;;;;;;5033917;28;20116;-70
2022/10/01 03:02:56;;;;;;;4.72;1.75;;;11.50;99.90;;;;;;5035878;28;20099;-68
2022/10/01 03:05:21;;;;;;;4.50;2.20;;;11.50;99.90;;;;;;5035479;28;20044;-69
2022/10/01 03:07:47;;;;;;;2.40;2.10;;;11.40;99.90;;;;;;5048050;28;20032;-69
2022/10/01 03:10:14;;;;;;;2.38;1.73;;;11.60;99.90;;;;;;5055305;28;20032;-69
2022/10/01 03:12:42;;;;;;;2.65;1.88;;;11.60;99.90;;;;;;5055268;28;20477;-70
2022/10/01 03:15:08;;;;;;;2.42;1.50;;;11.60;99.90;;;;;;5054868;28;20035;-70
2022/10/01 03:17:36;;;;;;;2.33;1.85;;;11.60;99.90;;;;;;5053115;28;20453;-70
2022/10/01 03:20:02;;;;;;;3.05;1.50;;;11.70;99.90;;;;;;5053779;28;20041;-70
2022/10/01 03:22:27;;;;;;;4.03;1.55;;;11.70;99.90;;;;;;5055287;28;20025;-69
2022/10/01 03:24:53;;;;;;;2.13;1.40;;;11.70;99.90;;;;;;5054908;28;20454;-69
2022/10/01 03:27:20;;;;;;;2.73;1.50;;;11.70;99.90;;;;;;5053338;28;20029;-69
2022/10/01 03:29:46;;;;;;;2.22;1.60;;;11.80;99.90;;;;;;5052804;28;20067;-69
2022/10/01 03:32:12;;;;;;;1.63;1.40;;;11.70;99.90;;;;;;5053263;28;20466;-69
2022/10/01 03:34:38;;;;;;;2.05;1.38;;;11.80;99.90;;;;;;5054446;28;20072;-69
2022/10/01 03:37:04;;;;;;;1.75;1.45;;;11.80;99.90;;;;;;5054371;28;20048;-68
2022/10/01 03:39:30;;;;;;;2.53;1.40;;;11.80;99.90;;;;;;5054262;28;20036;-68
2022/10/01 03:41:56;;;;;;;2.38;1.35;;;11.80;99.90;;;;;;5053212;28;20032;-69
2022/10/01 03:44:21;;;;;;;2.10;1.40;;;11.70;99.90;;;;;;5054424;28;20036;-69
2022/10/01 03:46:47;;;;;;;1.70;1.40;;;11.80;99.90;;;;;;5054241;28;20029;-69
2022/10/01 03:49:13;;;;;;;3.78;1.27;;;11.80;99.90;;;;;;5054232;28;20016;-69
2022/10/01 03:51:39;;;;;;;1.87;1.63;;;11.90;99.90;;;;;;5054248;28;20460;-69
2022/10/01 03:54:06;;;;;;;1.52;1.27;;;11.90;99.90;;;;;;5052993;28;20107;-69
2022/10/01 03:56:32;;;;;;;2.85;1.10;;;11.90;99.90;;;;;;5054733;28;20406;-69
2022/10/01 03:58:58;;;;;;;3.38;1.42;;;11.90;99.90;;;;;;5052943;28;20025;-69
2022/10/01 04:01:24;;;;;;;2.57;1.67;;;12.00;99.90;;;;;;5037820;28;20032;-69
2022/10/01 04:03:50;;;;;;;2.53;1.48;;;12.00;99.90;;;;;;5049184;28;20028;-69
2022/10/01 04:06:16;;;;;;;10.98;1.42;;;12.00;99.90;;;;;;5034332;28;20388;-69
2022/10/01 04:08:42;;;;;;;1.60;1.00;;;12.00;99.90;;;;;;5049418;28;20053;-69
2022/10/01 04:11:08;;;;;;;3.35;1.20;;;12.00;99.90;;;;;;5052558;28;20501;-70
2022/10/01 04:13:34;;;;;;;2.47;1.13;;;12.00;99.90;;;;;;5053973;28;20026;-69
2022/10/01 04:16:01;;;;;;;2.03;1.30;;;12.10;99.90;;;;;;5054006;28;20479;-69
2022/10/01 04:18:26;;;;;;;1.30;1.10;;;12.20;99.90;;;;;;5048046;28;20025;-69
2022/10/01 04:20:52;;;;;;;3.27;1.40;;;12.10;99.90;;;;;;5034107;28;20163;-71
2022/10/01 04:23:18;;;;;;;1.43;1.10;;;12.10;99.90;;;;;;5036825;28;20061;-70
2022/10/01 04:25:44;;;;;;;1.50;1.13;;;12.10;99.90;;;;;;5034266;28;20037;-69
2022/10/01 04:28:10;;;;;;;;;;;12.20;99.90;;;;;;5032673;28;20040;-69
2022/10/01 04:30:39;;;;;;;3.22;1.30;;;12.20;99.90;;;;;;5046655;28;19908;-69
2022/10/01 04:33:05;;;;;;;1.85;1.17;;;12.30;99.90;;;;;;5065970;22;20035;-67
2022/10/01 04:35:32;;;;;;;4.63;1.35;;;12.30;99.90;;;;;;5035495;28;20113;-66
2022/10/01 04:38:05;;;;;;;2.35;1.25;;;12.30;99.90;;;;;;5035790;28;20021;-66
2022/10/01 04:40:33;;;;;;;3.90;1.33;;;12.30;99.90;;;;;;5053739;28;20033;-65
2022/10/01 04:42:59;;;;;;;4.90;1.35;;;12.30;99.90;;;;;;5030852;28;20116;-66
2022/10/01 04:45:25;;;;;;;1.77;1.10;;;12.30;99.90;;;;;;5033071;28;20028;-67
2022/10/01 04:47:54;;;;;;;2.17;1.33;;;12.30;99.90;;;;;;5033135;28;20033;-65
2022/10/01 04:50:21;;;;;;;2.10;1.30;;;12.30;99.90;;;;;;5032803;28;20347;-65
2022/10/01 04:52:47;;;;;;;3.72;1.30;;;12.20;99.90;;;;;;5036549;28;20029;-65
2022/10/01 04:55:14;;;;;;;3.97;1.30;;;12.30;99.90;;;;;;5034757;28;20082;-64
2022/10/01 04:57:40;;;;;;;3.33;1.48;;;12.20;99.90;;;;;;5045502;28;20025;-64
2022/10/01 05:00:09;;;;;;;2.67;1.30;;;12.10;99.90;;;;;;5032885;28;20539;-64
2022/10/01 05:02:34;;;;;;;2.65;1.60;;;12.00;99.90;;;;;;5038628;28;20028;-65
2022/10/01 05:05:02;;;;;;;7.97;1.47;;;11.90;99.90;;;;;;5034072;28;20025;-65
2022/10/01 05:07:29;;;;;;;3.10;1.40;;;11.90;99.90;;;;;;5053162;28;20473;-65
2022/10/01 05:09:55;;;;;;;2.60;1.23;;;11.90;99.90;;;;;;5052761;28;20028;-67
2022/10/01 05:12:21;;;;;;;1.60;1.03;;;11.80;99.90;;;;;;5032955;28;20030;-66
2022/10/01 05:14:47;;;;;;;5.57;1.48;;;11.60;99.90;;;;;;5027946;28;20501;-65
2022/10/01 05:17:17;;;;;;;4.95;1.58;;;11.60;99.90;;;;;;5038953;28;20044;-66
2022/10/01 05:19:42;;;;;;;3.78;1.60;;;11.60;99.90;;;;;;5056484;28;20029;-66
2022/10/01 05:22:08;;;;;;;3.47;1.42;;;11.60;99.90;;;;;;5039594;28;20045;-65
2022/10/01 05:24:34;;;;;;;2.60;1.40;;;11.50;99.90;;;;;;5052577;28;20029;-66
2022/10/01 05:26:59;;;;;;;4.10;1.40;;;11.40;99.90;;;;;;5056997;28;20025;-65
2022/10/01 05:29:25;;;;;;;1.87;1.73;;;11.40;99.90;;;;;;5056193;28;20021;-65
2022/10/01 05:31:50;;;;;;;4.47;1.77;;;11.40;99.90;;;;;;5056464;28;20357;-65
2022/10/01 05:34:16;;;;;;;5.43;1.50;;;11.30;99.90;;;;;;5038026;28;20021;-65
2022/10/01 05:36:41;;;;;;;2.13;1.27;;;11.30;99.90;;;;;;5056170;28;20036;-63
2022/10/01 05:39:07;;;;;;;4.30;1.47;;;11.40;99.90;;;;;;5056824;28;20031;-65
2022/10/01 05:41:33;;;;;;;3.90;1.40;;;11.40;99.90;;;;;;5056581;28;20366;-65
2022/10/01 05:43:58;;;;;;;2.40;1.40;;;11.40;99.90;;;;;;5038520;28;20474;-65
2022/10/01 05:46:24;;;;;;;5.53;1.80;;;11.40;99.90;;;;;;5057151;28;20016;-65
2022/10/01 05:48:52;;;;;;;3.20;1.40;;;11.30;99.90;;;;;;5057476;28;20071;-65
2022/10/01 05:51:18;;;;;;;2.40;1.52;;;11.30;99.90;;;;;;5056813;28;20531;-65
2022/10/01 05:53:45;;;;;;;3.83;1.40;;;11.30;99.90;;;;;;5056027;28;20033;-65
2022/10/01 05:56:11;;;;;;;2.85;1.55;;;11.30;99.90;;;;;;5056758;28;20064;-65
2022/10/01 05:58:37;;;;;;;1.80;1.35;;;11.30;99.90;;;;;;5056260;28;20025;-65
2022/10/01 06:01:03;;;;;;;3.37;1.50;;;11.30;99.90;;;;;;5056209;28;20546;-65
2022/10/01 06:03:29;;;;;;;3.05;1.17;;;11.30;99.90;;;;;;5037916;28;20366;-66
2022/10/01 06:05:55;;;;;;;2.10;1.37;;;11.30;99.90;;;;;;5056328;28;20013;-65
2022/10/01 06:08:21;;;;;;;3.33;1.40;;;11.30;99.90;;;;;;5050685;28;20280;-65
2022/10/01 06:10:47;;;;;;;1.85;1.45;;;11.40;99.90;;;;;;5037425;28;20058;-66
2022/10/01 06:13:16;;;;;;;2.30;1.50;;;11.40;99.90;;;;;;5038522;28;20413;-67
2022/10/01 06:15:43;;;;;;;3.47;1.60;;;11.40;99.90;;;;;;5056812;28;20033;-66
2022/10/01 06:18:11;;;;;;;3.85;1.70;;;11.40;99.90;;;;;;5040333;28;20463;-69
2022/10/01 06:20:37;;;;;;;2.15;1.38;;;11.40;99.90;;;;;;5058022;28;20021;-67
2022/10/01 06:23:06;;;;;;;2.22;1.67;;;11.40;99.90;;;;;;5039315;28;20032;-68
2022/10/01 06:25:33;;;;;;;5.47;1.58;;;11.40;99.90;;;;;;5057884;28;20025;-69
2022/10/01 06:28:00;;;;;;;2.75;1.48;;;11.50;99.90;;;;;;5063248;28;20024;-68
2022/10/01 06:30:28;;;;;;;2.80;1.60;;;11.50;99.90;;;;;;5057161;28;20552;-65
2022/10/01 06:33:03;;;;;;;2.75;1.50;;;11.60;99.90;;;;;;5057572;28;20033;-67
2022/10/01 06:35:30;;;;;;;3.65;1.40;;;11.60;99.90;;;;;;5053143;28;20036;-68
2022/10/01 06:37:55;;;;;;;3.03;1.60;;;11.70;99.90;;;;;;5057410;28;20032;-68
2022/10/01 06:40:21;;;;;;;2.43;1.60;;;11.70;99.90;;;;;;5054705;28;20033;-69
2022/10/01 06:42:48;;;;;;;2.33;1.47;;;11.60;99.90;;;;;;5049525;28;20025;-68
2022/10/01 06:45:14;;;;;;;2.22;1.50;;;11.60;99.90;;;;;;5033522;28;20040;-68
2022/10/01 06:47:40;;;;;;;2.35;1.38;;;11.60;99.90;;;;;;5039883;28;20032;-69
2022/10/01 06:50:06;;;;;;;2.43;1.60;;;11.60;99.90;;;;;;5036890;28;20021;-69
2022/10/01 06:52:50;;;;;;;3.75;1.40;;;11.60;99.90;;;;;;5052385;28;20249;-69
2022/10/01 06:55:29;;;;;;;2.75;1.50;;;11.50;99.90;;;;;;5057349;28;20052;-68
2022/10/01 06:57:57;;;;;;;3.53;1.40;;;11.40;99.90;;;;;;5039392;28;20481;-68
2022/10/01 07:00:24;;;;;;;2.38;1.48;;;11.50;99.90;;;;;;5039111;28;20033;-68
2022/10/01 07:02:50;;;;;;;3.35;1.63;;;11.50;99.90;;;;;;5040704;28;20057;-69
2022/10/01 07:05:16;;;;;;;3.03;1.80;;;11.50;99.90;;;;;;5057895;28;20046;-69
2022/10/01 07:07:43;;;;;;;2.90;1.87;;;11.50;99.90;;;;;;5060028;28;20033;-68
2022/10/01 07:10:10;;;;;;;3.40;1.83;;;11.50;99.90;;;;;;5041989;28;20108;-68
2022/10/01 07:12:36;;;;;;;2.70;1.80;;;11.60;99.90;;;;;;5058262;28;20024;-67
2022/10/01 07:15:04;;;;;;;2.00;1.30;;;11.50;99.90;;;;;;5056548;28;20250;-68
2022/10/01 07:17:29;;;;;;;3.65;1.80;;;11.50;99.90;;;;;;5055630;28;20025;-68
2022/10/01 07:19:55;;;;;;;3.30;1.77;;;11.50;99.90;;;;;;5036983;28;20070;-68
2022/10/01 07:22:23;;;;;;;4.20;1.77;;;11.50;99.90;;;;;;5055267;28;20057;-68
2022/10/01 07:24:49;;;;;;;7.28;2.00;;;11.50;99.90;;;;;;5037103;28;20266;-67
2022/10/01 07:27:15;;;;;;;3.67;1.63;;;11.50;99.90;;;;;;5036556;28;20025;-68
2022/10/01 07:29:40;;;;;;;2.08;1.63;;;11.50;99.90;;;;;;5053731;28;20025;-67
2022/10/01 07:32:08;;;;;;;2.67;2.00;;;11.50;99.90;;;;;;5054585;28;20031;-67
2022/10/01 07:34:35;;;;;;;4.00;1.67;;;11.50;99.90;;;;;;5054228;28;20059;-68
2022/10/01 07:37:02;;;;;;;2.55;1.60;;;11.60;99.90;;;;;;5036019;28;20017;-67
2022/10/01 07:39:27;;;;;;;;;;;11.60;99.90;;;;;;5036586;28;20044;-67
2022/10/01 07:41:53;;;;;;;3.28;1.63;;;11.60;99.90;;;;;;5052226;28;19908;-67
2022/10/01 07:44:19;;;;;;;2.00;1.20;;;11.60;99.90;;;;;;5034275;28;20398;-67
2022/10/01 07:46:45;;;;;;;2.35;1.30;;;11.70;99.90;;;;;;5051978;28;20035;-67
2022/10/01 07:49:11;;;;;;;3.15;1.40;;;11.60;99.90;;;;;;5036084;28;20052;-67
2022/10/01 07:51:36;;;;;;;7.80;2.10;;;11.70;99.90;;;;;;5054157;28;20020;-67
2022/10/01 07:54:03;;;;;;;3.80;1.70;;;11.70;99.90;;;;;;5053998;28;20358;-68
2022/10/01 07:56:29;;;;;;;7.97;3.33;;;11.70;99.90;;;;;;5053491;28;20477;-68
2022/10/01 07:58:55;;;;;;;4.57;1.87;;;11.70;99.90;;;;;;5036157;28;20025;-68
2022/10/01 08:01:21;;;;;;;3.45;2.25;;;11.80;99.90;;;;;;5053942;28;20393;-67
2022/10/01 08:03:48;;;;;;;3.05;1.83;;;11.70;99.90;;;;;;5051754;28;20029;-66
2022/10/01 08:06:14;;;;;;;3.35;1.70;;;11.60;99.90;;;;;;5054225;28;20017;-68
2022/10/01 08:08:40;;;;;;;3.08;2.00;;;11.60;99.90;;;;;;5054083;28;20017;-67
2022/10/01 08:11:08;;;;;;;4.05;1.85;;;11.60;99.90;;;;;;5035931;28;20036;-67
2022/10/01 08:13:34;;;;;;;5.07;2.10;;;11.60;99.90;;;;;;5053766;28;20528;-70
2022/10/01 08:16:02;;;;;;;6.18;2.97;;;11.50;99.90;;;;;;5048234;28;20032;-70
2022/10/01 08:18:28;;;;;;;6.03;3.97;;;11.50;99.90;;;;;;5053780;28;20052;-70
2022/10/01 08:20:53;;;;;;;6.30;2.67;;;11.50;99.90;;;;;;5035988;28;20052;-70
2022/10/01 08:23:20;;;;;;;2.77;2.20;;;11.50;99.90;;;;;;5054212;28;20497;-70
2022/10/01 08:25:46;;;;;;;;;;;11.40;99.90;;;;;;5054349;28;20095;-69
2022/10/01 08:28:13;;;;;;;3.35;2.10;;;11.40;99.90;;;;;;5044032;28;19913;-69
2022/10/01 08:30:39;;;;;;;;;;;11.40;99.90;;;;;;5048966;28;20115;-70
2022/10/01 08:33:06;;;;;;;5.47;1.80;;;11.30;99.90;;;;;;5057275;28;19921;-69
2022/10/01 08:35:32;;;;;;;2.67;2.20;;;11.30;99.90;;;;;;5058497;28;20028;-72
2022/10/01 08:38:02;;;;;;;2.72;1.90;;;11.40;99.90;;;;;;5065894;28;20029;-73
2022/10/01 08:40:29;;;;;;;4.22;2.00;;;11.30;99.90;;;;;;5052947;28;20029;-71
2022/10/01 08:42:54;;;;;;;;;;;11.30;99.90;;;;;;5044987;28;20105;-77
2022/10/01 08:45:34;;;;;;;4.65;2.00;;;11.30;99.90;;;;;;5037645;28;19965;-76
2022/10/01 08:48:29;;;;;;;2.85;2.13;;;11.30;99.90;;;;;;5036212;28;20026;-73
2022/10/01 08:51:03;;;;;;;5.85;2.58;;;11.30;99.90;;;;;;5029668;28;20025;-72
2022/10/01 08:53:38;;;;;;;4.07;2.13;;;11.30;99.90;;;;;;5055992;28;20417;-74
2022/10/01 08:56:11;;;;;;;4.85;1.98;;;11.30;99.90;;;;;;5055842;28;20500;-75
2022/10/01 08:58:46;;;;;;;3.75;2.15;;;11.30;99.90;;;;;;5036056;28;20070;-70
2022/10/01 09:01:12;;;;;;;3.25;1.88;;;11.40;99.90;;;;;;5034991;28;20040;-71
2022/10/01 09:03:38;;;;;;;4.97;2.43;;;11.30;99.90;;;;;;5034312;28;20111;-71
2022/10/01 09:06:21;;;;;;;4.28;2.10;;;11.30;99.90;;;;;;5030736;28;20617;-70
2022/10/01 09:09:19;;;;;;;3.08;1.98;;;11.30;99.90;;;;;;5037015;28;20480;-73
2022/10/01 09:12:02;;;;;;;2.60;2.30;;;11.40;99.90;;;;;;5035850;28;20116;-69
2022/10/01 09:14:33;;;;;;;4.00;1.88;;;11.40;99.90;;;;;;5035049;28;20394;-71
2022/10/01 09:17:22;;;;;;;1.75;1.65;;;11.40;99.90;;;;;;5035943;28;20031;-71
2022/10/01 09:20:16;;;;;;;3.78;2.00;;;11.40;99.90;;;;;;5035206;28;20032;-70
2022/10/01 09:23:02;;;;;;;3.25;1.95;;;11.30;99.90;;;;;;5035332;28;20057;-69
2022/10/01 09:25:28;;;;;;;3.38;1.85;;;11.40;99.90;;;;;;5052556;28;20037;-70
2022/10/01 09:28:05;;;;;;;2.72;1.90;;;11.40;99.90;;;;;;5053147;28;20017;-70
2022/10/01 09:30:31;;;;;;;5.47;2.10;;;11.40;99.90;;;;;;5034748;28;20078;-69
2022/10/01 09:33:09;;;;;;;2.65;1.90;;;11.30;99.90;;;;;;5034028;28;20075;-69
2022/10/01 09:35:47;;;;;;;2.80;1.80;;;11.40;99.90;;;;;;5048610;28;20056;-69
2022/10/01 09:38:33;;;;;;;3.17;2.00;;;11.30;99.90;;;;;;5034979;28;20021;-69
2022/10/01 09:40:59;;;;;;;3.08;1.65;;;11.30;99.90;;;;;;5053714;28;20528;-69
2022/10/01 09:43:30;;;;;;;2.27;2.03;;;11.20;99.90;;;;;;5053907;28;20025;-70
2022/10/01 09:45:56;;;;;;;2.55;2.03;;;11.30;99.90;;;;;;5036172;28;20369;-71
2022/10/01 09:48:45;;;;;;;3.80;1.98;;;11.50;99.90;;;;;;5053685;28;20013;-72
2022/10/01 09:51:16;;;;;;;2.90;1.55;;;11.50;99.90;;;;;;5052197;28;20029;-72
2022/10/01 09:54:09;;;;;;;3.53;1.83;;;11.40;99.90;;;;;;5051566;28;20162;-71
2022/10/01 09:56:48;;;;;;;5.22;1.77;;;11.50;99.90;;;;;;5036201;28;20029;-72
2022/10/01 09:59:21;;;;;;;3.17;2.00;;;11.60;99.90;;;;;;5038451;28;20051;-73
2022/10/01 10:01:55;;;;;;;2.95;1.25;;;11.80;99.90;;;;;;5040307;28;20048;-73
2022/10/01 10:04:24;;;;;;;2.78;1.50;;;11.80;99.90;;;;;;5039151;28;20039;-71
2022/10/01 10:06:57;;;;;;;9.93;5.20;;;11.90;99.90;;;;;;5052435;28;20044;-70
2022/10/01 10:09:31;;;;;;;3.42;1.75;;;11.90;99.90;;;;;;5053013;28;20036;-71
2022/10/01 10:11:58;;;;;;;2.20;1.30;;;11.90;99.90;;;;;;5038079;28;20044;-73
2022/10/01 10:14:35;;;;;;;3.58;1.73;;;12.00;99.90;;;;;;5038554;28;20146;-74
2022/10/01 10:17:11;;;;;;;;;;;11.90;99.90;;;;;;5056411;28;20039;-72
2022/10/01 10:19:37;;;;;;;3.35;1.45;;;11.90;99.90;;;;;;5039456;28;19905;-75
2022/10/01 10:22:23;;;;;;;2.97;1.50;;;11.90;99.90;;;;;;5032817;28;20025;-72
2022/10/01 10:24:51;;;;;;;3.55;2.17;;;11.80;99.90;;;;;;5056387;28;20052;-75
2022/10/01 10:27:28;;;;;;;2.15;1.60;;;11.90;99.90;;;;;;5038566;28;20025;-72
2022/10/01 10:30:12;;;;;;;8.23;7.15;;;11.90;99.90;;;;;;5055361;28;20396;-72
2022/10/01 10:32:38;;;;;;;5.15;3.95;;;12.00;99.90;;;;;;5055404;28;20477;-71
2022/10/01 10:35:08;;;;;;;;;;;12.10;99.90;;;;;;5076882;23;20037;-67
2022/10/01 10:37:36;;;;;;;5.38;1.83;;;12.10;99.90;;;;;;5054943;28;19912;-67
2022/10/01 10:40:04;;;;;;;4.03;1.63;;;12.10;99.90;;;;;;5055196;28;20021;-68
2022/10/01 10:42:32;;;;;;;24.38;9.85;;;12.20;99.90;;;;;;5054649;28;20485;-68
2022/10/01 10:45:02;;;;;;;7.07;3.42;;;12.10;99.90;;;;;;5055848;28;20021;-67
2022/10/01 10:47:30;;;;;;;2.95;1.60;;;12.20;99.90;;;;;;5055944;28;20021;-70
2022/10/01 10:50:04;;;;;;;2.05;1.67;;;12.20;99.90;;;;;;5054993;28;20049;-73
2022/10/01 10:52:35;;;;;;;2.72;1.48;;;12.30;99.90;;;;;;5054759;28;20481;-70
2022/10/01 10:55:21;;;;;;;3.10;1.40;;;12.30;99.90;;;;;;5055954;28;20040;-70
2022/10/01 10:57:48;;;;;;;1.15;1.02;;;12.30;99.90;;;;;;5047450;28;20085;-68
2022/10/01 11:00:25;;;;;;;2.53;1.60;;;12.30;99.90;;;;;;5055415;28;20116;-70
2022/10/01 11:03:05;;;;;;;3.17;1.50;;;12.30;99.90;;;;;;5057078;28;20021;-71
2022/10/01 11:05:32;;;;;;;2.40;1.45;;;12.30;99.90;;;;;;5055955;28;20059;-70
2022/10/01 11:08:05;;;;;;;5.43;2.17;;;12.30;99.90;;;;;;5056902;28;20021;-68
2022/10/01 11:10:46;;;;;;;1.15;0.93;;;12.40;99.90;;;;;;5056509;28;20469;-65
2022/10/01 11:13:38;;;;;;;3.55;1.63;;;12.40;99.90;;;;;;5054763;28;20037;-71
2022/10/01 11:16:38;;;;;;;2.13;1.25;;;12.40;99.90;;;;;;5056051;28;20051;-67
2022/10/01 11:19:15;;;;;;;2.28;1.10;;;12.40;99.90;;;;;;5057052;28;20499;-68
2022/10/01 11:21:45;;;;;;;4.93;2.40;;;12.40;99.90;;;;;;5057172;28;20021;-68
2022/10/01 11:24:31;;;;;;;4.85;1.75;;;12.40;99.90;;;;;;5057452;28;20036;-67
2022/10/01 11:27:12;;;;;;;2.75;1.25;;;12.50;99.90;;;;;;5056629;28;20021;-70
2022/10/01 11:29:47;;;;;;;2.55;1.33;;;12.50;99.90;;;;;;5057471;28;20059;-67
2022/10/01 11:32:31;;;;;;;3.85;2.47;;;12.60;99.90;;;;;;5057153;28;20401;-68
2022/10/01 11:34:56;;;;;;;3.67;1.42;;;12.60;99.90;;;;;;5054532;28;20472;-66
2022/10/01 11:37:48;;;;;;;5.43;3.67;;;12.80;99.90;;;;;;5055522;28;20075;-67
2022/10/01 11:40:27;;;;;;;1.92;1.30;;;12.80;99.90;;;;;;5057682;28;20021;-69
2022/10/01 11:43:01;;;;;;;1.50;0.88;;;12.90;99.90;;;;;;5056394;28;20053;-68
2022/10/01 11:45:31;;;;;;;2.30;1.50;;;12.90;99.90;;;;;;5057502;28;20473;-67
2022/10/01 11:48:05;;;;;;;2.22;1.38;;;13.00;99.90;;;;;;5056237;28;20025;-67
2022/10/01 11:50:36;;;;;;;2.80;1.25;;;13.10;99.90;;;;;;5054671;28;20029;-67
2022/10/01 11:53:17;;;;;;;1.45;0.90;;;13.10;99.90;;;;;;5055967;28;20025;-67
2022/10/01 11:59:19;;;;;;;3.53;2.42;;;13.30;99.90;;;;;;5058217;28;20378;-70
2022/10/01 12:01:54;;;;;;;1.85;1.05;;;13.30;99.90;;;;;;5057165;28;20075;-71
2022/10/01 12:04:42;;;;;;;2.25;1.15;;;13.50;99.90;;;;;;5069260;28;20060;-72
2022/10/01 12:07:46;;;;;;;1.98;0.80;;;13.50;99.90;;;;;;5053852;28;20032;-68
2022/10/01 12:10:38;;;;;;;2.25;1.20;;;13.50;99.90;;;;;;5069648;28;20021;-70
2022/10/01 12:13:23;;;;;;;0.95;0.80;;;13.60;99.90;;;;;;5054311;28;20021;-70
2022/10/01 12:16:12;;;;;;;3.63;0.90;;;13.60;99.90;;;;;;5053158;28;20024;-71
2022/10/01 12:18:46;;;;;;;3.15;1.30;;;13.70;99.90;;;;;;5052548;28;20028;-68
2022/10/01 12:21:36;;;;;;;1.48;0.95;;;13.70;99.90;;;;;;5052396;28;20062;-68
2022/10/01 12:24:13;;;;;;;3.03;1.17;;;13.70;99.90;;;;;;5052112;28;20112;-66
2022/10/01 12:27:04;;;;;;;1.73;1.00;;;13.80;99.90;;;;;;5054049;28;20020;-67
2022/10/01 12:29:45;;;;;;;1.55;1.17;;;13.80;99.90;;;;;;5045327;28;20393;-67
2022/10/01 12:32:31;;;;;;;1.95;1.17;;;13.80;99.90;;;;;;5048897;28;20009;-68
2022/10/01 12:35:30;;;;;;;1.38;1.00;;;13.80;99.90;;;;;;5050607;28;20439;-69
2022/10/01 12:38:18;;;;;;;1.42;0.90;;;13.90;99.90;;;;;;5054366;28;20544;-68
2022/10/01 12:41:09;;;;;;;1.75;0.88;;;14.00;99.90;;;;;;5052671;28;20028;-71
2022/10/01 12:44:06;;;;;;;2.42;0.85;;;14.00;99.90;;;;;;5052139;28;20079;-70
2022/10/01 12:46:56;;;;;;;1.77;0.85;;;14.00;99.90;;;;;;5033637;28;20398;-67
2022/10/01 12:49:44;;;;;;;1.00;0.63;;;14.10;99.90;;;;;;5032801;28;20129;-67
2022/10/01 12:52:32;;;;;;;1.80;1.00;;;14.00;99.90;;;;;;5032559;28;20021;-66
2022/10/01 12:55:23;;;;;;;2.10;1.02;;;14.10;99.90;;;;;;5046188;28;20055;-66
2022/10/01 12:58:02;;;;;;;1.20;0.90;;;14.30;99.90;;;;;;5053906;28;20025;-66
2022/10/01 13:00:34;;;;;;;1.00;0.68;;;14.30;99.90;;;;;;5053090;28;20025;-66
2022/10/01 13:03:18;;;;;;;1.95;0.90;;;14.50;99.90;;;;;;5052055;28;20478;-69
2022/10/01 13:06:00;;;;;;;3.40;0.80;;;14.40;99.90;;;;;;5051564;28;20025;-68
2022/10/01 13:08:56;;;;;;;0.80;0.60;;;14.40;99.90;;;;;;5053622;28;20036;-69
2022/10/01 13:11:43;;;;;;;1.38;0.70;;;14.40;99.90;;;;;;5051406;28;20211;-68
2022/10/01 13:14:16;;;;;;;2.03;0.80;;;14.50;99.90;;;;;;5052583;28;20028;-68